createdAt,value
2023-01-19T00:00:53.755Z,80.76
2023-01-19T00:03:21.549Z,80.78
2023-01-19T00:05:48.481Z,80.94
2023-01-19T00:08:15.577Z,80.97
2023-01-19T00:10:44.749Z,81.13
2023-01-19T00:13:14.575Z,81.23
2023-01-19T00:15:41.433Z,81.35
2023-01-19T00:18:10.599Z,81.68
2023-01-19T00:20:38.729Z,82.01
2023-01-19T00:23:08.169Z,81.97
2023-01-19T00:25:35.456Z,82.19
2023-01-19T00:28:02.308Z,82.66
2023-01-19T00:30:29.476Z,82.66
2023-01-19T00:32:56.161Z,82.60
2023-01-19T00:35:23.197Z,82.47
2023-01-19T00:37:50.389Z,82.46
2023-01-19T00:40:17.654Z,82.23
2023-01-19T00:42:44.644Z,82.28
2023-01-19T00:45:16.656Z,82.00
2023-01-19T00:47:43.649Z,81.86
2023-01-19T00:50:12.920Z,81.85
2023-01-19T00:52:41.110Z,81.61
2023-01-19T00:55:09.613Z,81.35
2023-01-19T00:57:36.589Z,81.15
2023-01-19T01:00:06.557Z,81.03
2023-01-19T01:02:33.899Z,80.75
2023-01-19T01:05:02.837Z,80.64
2023-01-19T01:07:31.084Z,80.36
2023-01-19T01:09:57.869Z,80.14
2023-01-19T01:12:25.302Z,80.06
2023-01-19T01:14:52.242Z,79.90
2023-01-19T01:17:24.756Z,79.86
2023-01-19T01:19:52.281Z,79.80
2023-01-19T01:22:19.592Z,79.74
2023-01-19T01:24:46.477Z,79.65
2023-01-19T01:27:13.336Z,79.75
2023-01-19T01:29:41.226Z,79.59
2023-01-19T01:32:08.443Z,79.45
2023-01-19T01:34:35.936Z,79.63
2023-01-19T01:37:02.978Z,79.51
2023-01-19T01:39:29.781Z,79.61
2023-01-19T01:41:57.560Z,79.54
2023-01-19T01:44:53.616Z,79.80
2023-01-19T01:47:23.706Z,79.88
2023-01-19T01:50:03.117Z,79.88
2023-01-19T01:52:34.312Z,80.00
2023-01-19T01:55:07.089Z,80.17
2023-01-19T01:57:41.319Z,80.22
2023-01-19T02:00:08.981Z,80.32
2023-01-19T02:02:52.354Z,80.19
2023-01-19T02:05:26.890Z,80.40
2023-01-19T02:08:19.243Z,80.60
2023-01-19T02:11:05.512Z,80.51
2023-01-19T02:13:36.352Z,80.42
2023-01-19T02:16:08.938Z,80.77
2023-01-19T02:18:37.588Z,80.82
2023-01-19T02:21:13.547Z,80.82
2023-01-19T02:23:58.308Z,80.90
2023-01-19T02:26:31.462Z,80.82
2023-01-19T02:29:05.509Z,81.02
2023-01-19T02:31:34.378Z,80.72
2023-01-19T02:34:03.038Z,80.80
2023-01-19T02:36:54.403Z,80.78
2023-01-19T02:39:29.168Z,80.69
2023-01-19T02:42:03.234Z,80.45
2023-01-19T02:44:31.511Z,80.65
2023-01-19T02:46:58.079Z,80.54
2023-01-19T02:49:28.971Z,80.31
2023-01-19T02:51:56.193Z,80.38
2023-01-19T02:54:31.778Z,80.47
2023-01-19T02:57:24.807Z,80.45
2023-01-19T03:00:17.745Z,80.52
2023-01-19T03:03:19.887Z,80.42
2023-01-19T03:05:54.143Z,80.41
2023-01-19T03:08:34.297Z,80.28
2023-01-19T03:11:10.311Z,80.50
2023-01-19T03:14:09.000Z,80.53
2023-01-19T03:16:38.802Z,80.66
2023-01-19T03:19:12.413Z,80.78
2023-01-19T03:21:42.743Z,81.19
2023-01-19T03:24:12.305Z,81.33
2023-01-19T03:26:47.352Z,81.43
2023-01-19T03:29:16.358Z,81.56
2023-01-19T03:31:46.356Z,81.59
2023-01-19T03:34:16.146Z,81.35
2023-01-19T03:36:46.562Z,81.48
2023-01-19T03:39:18.047Z,81.46
2023-01-19T03:41:48.772Z,81.33
2023-01-19T03:44:16.696Z,81.25
2023-01-19T03:46:45.827Z,81.44
2023-01-19T03:49:13.143Z,81.32
2023-01-19T03:51:40.286Z,81.33
2023-01-19T03:54:07.617Z,81.26
2023-01-19T03:56:34.927Z,81.16
2023-01-19T03:59:01.780Z,80.97
2023-01-19T04:01:28.842Z,81.03
2023-01-19T04:03:55.888Z,80.95
2023-01-19T04:06:23.149Z,80.82
2023-01-19T04:08:51.905Z,80.64
2023-01-19T04:11:18.814Z,80.63
2023-01-19T04:13:45.780Z,80.45
2023-01-19T04:16:12.796Z,80.48
2023-01-19T04:18:42.193Z,80.44
2023-01-19T04:21:09.254Z,80.56
2023-01-19T04:23:36.567Z,80.52
2023-01-19T04:26:06.440Z,80.55
2023-01-19T04:28:39.516Z,80.38
2023-01-19T04:31:06.932Z,80.43
2023-01-19T04:33:34.410Z,80.19
2023-01-19T04:36:01.715Z,80.36
2023-01-19T04:38:28.926Z,79.97
2023-01-19T04:40:56.199Z,80.09
2023-01-19T04:43:23.957Z,79.94
2023-01-19T04:45:51.485Z,80.00
2023-01-19T04:48:18.863Z,79.83
2023-01-19T04:50:48.633Z,79.86
2023-01-19T04:53:16.534Z,79.89
2023-01-19T04:55:43.522Z,79.62
2023-01-19T04:58:10.436Z,79.58
2023-01-19T05:00:39.421Z,79.56
2023-01-19T05:03:06.309Z,79.61
2023-01-19T05:05:36.166Z,79.41
2023-01-19T05:08:03.272Z,79.30
2023-01-19T05:10:30.643Z,79.15
2023-01-19T05:12:58.192Z,79.25
2023-01-19T05:15:25.752Z,79.37
2023-01-19T05:17:57.975Z,79.14
2023-01-19T05:20:25.990Z,79.38
2023-01-19T05:22:53.882Z,79.31
2023-01-19T05:25:21.107Z,79.44
2023-01-19T05:27:48.035Z,79.43
2023-01-19T05:30:15.362Z,79.48
2023-01-19T05:32:42.447Z,79.24
2023-01-19T05:35:10.013Z,79.11
2023-01-19T05:37:36.845Z,79.15
2023-01-19T05:40:07.441Z,79.32
2023-01-19T05:42:34.361Z,79.24
2023-01-19T05:45:01.601Z,79.28
2023-01-19T05:47:31.622Z,79.24
2023-01-19T05:49:58.655Z,79.28
2023-01-19T05:52:26.025Z,79.35
2023-01-19T05:54:55.044Z,79.49
2023-01-19T05:57:24.975Z,79.29
2023-01-19T05:59:52.026Z,79.67
2023-01-19T06:02:19.236Z,79.74
2023-01-19T06:04:46.289Z,79.79
2023-01-19T06:07:13.480Z,79.89
2023-01-19T06:09:40.292Z,79.92
2023-01-19T06:12:07.352Z,79.74
2023-01-19T06:14:41.550Z,79.78
2023-01-19T06:17:08.725Z,79.72
2023-01-19T06:19:35.833Z,79.68
2023-01-19T06:22:02.864Z,79.74
2023-01-19T06:24:30.261Z,79.50
2023-01-19T06:26:57.234Z,79.34
2023-01-19T06:29:25.410Z,79.62
2023-01-19T06:31:54.844Z,79.41
2023-01-19T06:34:22.271Z,79.47
2023-01-19T06:36:50.674Z,79.34
2023-01-19T06:39:17.958Z,79.20
2023-01-19T06:41:45.137Z,79.22
2023-01-19T06:44:12.051Z,79.14
2023-01-19T06:46:39.222Z,79.18
2023-01-19T06:49:06.128Z,79.06
2023-01-19T06:51:32.909Z,78.99
2023-01-19T06:53:59.787Z,78.99
2023-01-19T06:56:26.481Z,78.96
2023-01-19T06:58:54.324Z,78.81
2023-01-19T07:01:21.772Z,79.00
2023-01-19T07:03:48.540Z,78.83
2023-01-19T07:06:15.365Z,78.87
2023-01-19T07:08:42.381Z,78.74
2023-01-19T07:11:24.733Z,78.58
2023-01-19T07:13:58.384Z,78.51
2023-01-19T07:16:25.462Z,78.56
2023-01-19T07:18:53.035Z,78.31
2023-01-19T07:21:20.519Z,78.21
2023-01-19T07:23:53.887Z,78.13
2023-01-19T07:26:22.223Z,78.00
2023-01-19T07:28:52.378Z,77.68
2023-01-19T07:31:20.055Z,77.68
2023-01-19T07:33:47.207Z,77.70
2023-01-19T07:36:14.713Z,77.59
2023-01-19T07:38:41.958Z,77.49
2023-01-19T07:41:10.093Z,77.50
2023-01-19T07:43:37.136Z,77.42
2023-01-19T07:46:06.331Z,77.27
2023-01-19T07:48:33.619Z,77.40
2023-01-19T07:51:01.844Z,77.34
2023-01-19T07:53:28.801Z,77.32
2023-01-19T07:55:59.305Z,77.03
2023-01-19T07:58:26.666Z,76.66
2023-01-19T08:00:53.734Z,76.72
2023-01-19T08:03:20.776Z,76.68
2023-01-19T08:05:52.176Z,76.42
2023-01-19T08:08:19.491Z,76.41
2023-01-19T08:10:49.856Z,76.39
2023-01-19T08:13:16.698Z,76.28
2023-01-19T08:15:44.038Z,76.14
2023-01-19T08:18:11.757Z,76.15
2023-01-19T08:20:38.751Z,75.87
2023-01-19T08:23:05.662Z,75.82
2023-01-19T08:25:34.232Z,75.66
2023-01-19T08:28:01.615Z,75.41
2023-01-19T08:30:28.410Z,75.51
2023-01-19T08:32:58.088Z,75.26
2023-01-19T08:35:25.378Z,75.48
2023-01-19T08:37:52.422Z,75.35
2023-01-19T08:40:19.712Z,75.38
2023-01-19T08:42:46.514Z,75.35
2023-01-19T08:45:13.538Z,75.32
2023-01-19T08:47:40.501Z,75.55
2023-01-19T08:50:07.888Z,75.23
2023-01-19T08:52:34.583Z,75.44
2023-01-19T08:55:04.889Z,75.68
2023-01-19T08:57:31.848Z,75.35
2023-01-19T09:00:00.953Z,75.27
2023-01-19T09:02:28.305Z,75.07
2023-01-19T09:04:55.393Z,75.01
2023-01-19T09:07:22.125Z,74.79
2023-01-19T09:09:48.754Z,74.69
2023-01-19T09:12:16.556Z,74.88
2023-01-19T09:14:43.621Z,74.67
2023-01-19T09:17:10.503Z,74.87
2023-01-19T09:19:37.119Z,75.21
2023-01-19T09:22:04.421Z,75.71
2023-01-19T09:24:31.210Z,76.00
2023-01-19T09:26:58.259Z,76.34
2023-01-19T09:29:25.702Z,76.69
2023-01-19T09:31:53.030Z,76.97
2023-01-19T09:34:21.015Z,77.13
2023-01-19T09:36:48.225Z,77.05
2023-01-19T09:39:15.073Z,77.16
2023-01-19T09:41:47.303Z,77.20
2023-01-19T09:44:32.131Z,77.74
2023-01-19T09:47:00.780Z,78.33
2023-01-19T09:49:41.624Z,78.62
2023-01-19T09:52:13.330Z,78.88
2023-01-19T09:54:52.988Z,79.67
2023-01-19T09:57:26.885Z,80.14
2023-01-19T09:59:59.394Z,80.18
2023-01-19T10:02:32.016Z,80.56
2023-01-19T10:05:00.273Z,80.80
2023-01-19T10:07:36.603Z,81.67
2023-01-19T10:10:13.129Z,82.21
2023-01-19T10:12:56.121Z,82.86
2023-01-19T10:15:49.197Z,84.32
2023-01-19T10:18:39.910Z,84.83
2023-01-19T10:21:14.811Z,85.54
2023-01-19T10:23:57.241Z,85.75
2023-01-19T10:26:33.836Z,86.17
2023-01-19T10:29:22.129Z,86.72
2023-01-19T10:31:52.136Z,87.39
2023-01-19T10:34:23.195Z,87.72
2023-01-19T10:36:57.863Z,88.26
2023-01-19T10:39:25.109Z,88.68
2023-01-19T10:41:53.454Z,89.83
2023-01-19T10:44:36.799Z,90.12
2023-01-19T10:47:06.337Z,90.95
2023-01-19T10:49:39.072Z,91.20
2023-01-19T10:52:08.070Z,90.75
2023-01-19T10:54:37.321Z,90.96
2023-01-19T10:57:07.599Z,90.62
2023-01-19T10:59:49.557Z,90.25
2023-01-19T11:02:27.857Z,90.45
2023-01-19T11:05:21.667Z,90.47
2023-01-19T11:07:48.894Z,90.05
2023-01-19T11:10:15.874Z,89.99
2023-01-19T11:12:45.916Z,89.75
2023-01-19T11:15:21.457Z,89.33
2023-01-19T11:17:48.957Z,89.49
2023-01-19T11:20:20.307Z,88.99
2023-01-19T11:22:48.826Z,88.68
2023-01-19T11:25:32.061Z,88.53
2023-01-19T11:27:59.196Z,88.50
2023-01-19T11:30:27.076Z,88.10
2023-01-19T11:32:54.479Z,88.14
2023-01-19T11:35:41.607Z,87.99
2023-01-19T11:38:23.769Z,87.59
2023-01-19T11:41:04.134Z,87.84
2023-01-19T11:43:47.417Z,87.36
2023-01-19T11:46:16.414Z,87.28
2023-01-19T11:48:57.474Z,87.10
2023-01-19T11:51:30.545Z,87.13
2023-01-19T11:53:57.433Z,87.14
2023-01-19T11:56:28.945Z,86.88
2023-01-19T11:58:56.371Z,87.08
2023-01-19T12:01:24.635Z,86.89
2023-01-19T12:04:14.319Z,87.30
2023-01-19T12:06:44.777Z,87.83
2023-01-19T12:09:23.457Z,88.79
2023-01-19T12:11:57.448Z,89.23
2023-01-19T12:14:31.501Z,89.79
2023-01-19T12:17:03.250Z,90.46
2023-01-19T12:19:42.255Z,90.38
2023-01-19T12:22:15.218Z,91.53
2023-01-19T12:24:58.660Z,91.90
2023-01-19T12:27:40.777Z,92.08
2023-01-19T12:30:21.075Z,92.63
2023-01-19T12:32:48.080Z,92.85
2023-01-19T12:36:00.766Z,93.10
2023-01-19T12:38:56.670Z,93.00
2023-01-19T12:41:41.004Z,93.30
2023-01-19T12:44:10.983Z,93.31
2023-01-19T12:46:42.705Z,93.53
2023-01-19T12:49:26.977Z,93.58
2023-01-19T12:52:28.112Z,94.15
2023-01-19T12:55:14.130Z,94.17
2023-01-19T12:57:47.097Z,94.75
2023-01-19T13:00:23.524Z,95.68
2023-01-19T13:03:00.146Z,95.63
2023-01-19T13:05:33.607Z,95.91
2023-01-19T13:08:03.417Z,96.08
2023-01-19T13:11:02.163Z,96.62
2023-01-19T13:13:31.220Z,95.87
2023-01-19T13:16:27.685Z,96.21
2023-01-19T13:19:05.510Z,96.54
2023-01-19T13:21:44.841Z,96.30
2023-01-19T13:24:15.097Z,96.65
2023-01-19T13:26:51.080Z,96.89
2023-01-19T13:29:35.610Z,97.05
2023-01-19T13:32:06.518Z,97.03
2023-01-19T13:34:42.553Z,96.67
2023-01-19T13:37:18.478Z,96.71
2023-01-19T13:39:49.895Z,96.70
2023-01-19T13:42:36.985Z,96.64
2023-01-19T13:45:16.104Z,96.81
2023-01-19T13:47:46.811Z,96.79
2023-01-19T13:50:21.921Z,96.78
2023-01-19T13:52:53.902Z,96.85
2023-01-19T13:55:21.911Z,96.73
2023-01-19T13:57:50.369Z,96.44
2023-01-19T14:00:18.940Z,96.33
2023-01-19T14:02:54.269Z,96.35
2023-01-19T14:05:24.500Z,96.31
2023-01-19T14:08:14.926Z,96.23
2023-01-19T14:10:53.577Z,96.26
2023-01-19T14:13:27.217Z,96.24
2023-01-19T14:15:59.478Z,96.30
2023-01-19T14:18:32.598Z,95.77
2023-01-19T14:21:08.863Z,96.05
2023-01-19T14:23:35.437Z,95.49
2023-01-19T14:26:02.157Z,95.18
2023-01-19T14:28:39.416Z,94.83
2023-01-19T14:31:20.710Z,94.55
2023-01-19T14:33:51.353Z,94.80
2023-01-19T14:36:21.562Z,94.74
2023-01-19T14:38:50.171Z,94.73
2023-01-19T14:41:32.644Z,94.44
2023-01-19T14:44:00.485Z,94.16
2023-01-19T14:46:27.306Z,94.08
2023-01-19T14:49:01.151Z,94.16
2023-01-19T14:51:29.511Z,93.97
2023-01-19T14:53:59.364Z,93.76
2023-01-19T14:56:31.928Z,93.98
2023-01-19T14:59:00.801Z,94.11
2023-01-19T15:01:29.473Z,94.00
2023-01-19T15:03:59.355Z,93.58
2023-01-19T15:06:26.607Z,93.79
2023-01-19T15:08:53.859Z,93.68
2023-01-19T15:11:33.015Z,93.48
2023-01-19T15:14:00.344Z,93.85
2023-01-19T15:16:29.093Z,93.55
2023-01-19T15:18:56.203Z,93.41
2023-01-19T15:21:26.635Z,92.77
2023-01-19T15:23:54.765Z,91.96
2023-01-19T15:26:26.321Z,91.11
2023-01-19T15:28:53.726Z,91.00
2023-01-19T15:31:23.521Z,91.34
2023-01-19T15:33:50.615Z,91.71
2023-01-19T15:36:22.286Z,92.12
2023-01-19T15:38:52.210Z,92.38
2023-01-19T15:41:29.943Z,92.97
2023-01-19T15:43:57.107Z,93.28
2023-01-19T15:46:25.754Z,93.39
2023-01-19T15:48:54.145Z,94.12
2023-01-19T15:51:23.364Z,94.84
2023-01-19T15:53:50.227Z,94.98
2023-01-19T15:56:26.343Z,95.47
2023-01-19T15:58:53.843Z,95.47
2023-01-19T16:01:23.328Z,95.83
2023-01-19T16:03:51.254Z,96.16
2023-01-19T16:06:18.452Z,96.38
2023-01-19T16:08:45.650Z,96.34
2023-01-19T16:11:15.108Z,96.64
2023-01-19T16:13:46.155Z,96.67
2023-01-19T16:16:16.659Z,96.75
2023-01-19T16:18:43.755Z,96.92
2023-01-19T16:21:10.764Z,96.82
2023-01-19T16:23:38.011Z,96.90
2023-01-19T16:26:22.936Z,97.29
2023-01-19T16:28:49.728Z,97.10
2023-01-19T16:31:16.671Z,97.24
2023-01-19T16:33:45.188Z,97.28
2023-01-19T16:36:31.667Z,97.57
2023-01-19T16:39:03.797Z,97.48
2023-01-19T16:41:31.156Z,97.44
2023-01-19T16:43:58.417Z,97.52
2023-01-19T16:46:35.154Z,97.62
2023-01-19T16:49:22.979Z,97.35
2023-01-19T16:51:50.754Z,97.32
2023-01-19T16:54:20.791Z,97.28
2023-01-19T16:56:48.589Z,97.53
2023-01-19T16:59:17.417Z,97.39
2023-01-19T17:01:45.506Z,97.48
2023-01-19T17:04:13.435Z,97.69
2023-01-19T17:06:40.601Z,97.86
2023-01-19T17:09:09.401Z,97.93
2023-01-19T17:11:37.075Z,97.86
2023-01-19T17:14:07.222Z,97.78
2023-01-19T17:16:35.265Z,97.74
2023-01-19T17:19:04.531Z,97.92
2023-01-19T17:21:35.105Z,98.02
2023-01-19T17:24:01.954Z,97.90
2023-01-19T17:26:30.997Z,97.92
2023-01-19T17:29:02.904Z,97.99
2023-01-19T17:31:31.999Z,97.91
2023-01-19T17:33:59.986Z,97.80
2023-01-19T17:36:28.939Z,97.94
2023-01-19T17:38:58.106Z,98.14
2023-01-19T17:41:27.405Z,97.82
2023-01-19T17:43:55.031Z,97.62
2023-01-19T17:46:24.342Z,97.58
2023-01-19T17:48:58.733Z,97.54
2023-01-19T17:51:26.347Z,97.23
2023-01-19T17:53:53.575Z,97.15
2023-01-19T17:56:22.476Z,97.15
2023-01-19T17:58:49.946Z,97.10
2023-01-19T18:01:19.392Z,96.77
2023-01-19T18:03:46.500Z,96.87
2023-01-19T18:06:14.091Z,96.92
2023-01-19T18:08:46.249Z,97.07
2023-01-19T18:11:13.965Z,97.30
2023-01-19T18:13:44.006Z,97.63
2023-01-19T18:16:13.912Z,98.05
2023-01-19T18:18:41.387Z,98.28
2023-01-19T18:21:10.256Z,98.68
2023-01-19T18:23:37.328Z,98.85
2023-01-19T18:26:06.827Z,98.96
2023-01-19T18:28:33.903Z,99.49
2023-01-19T18:31:01.191Z,99.57
2023-01-19T18:33:28.797Z,99.74
2023-01-19T18:35:55.523Z,99.67
2023-01-19T18:38:22.414Z,99.74
2023-01-19T18:40:48.922Z,99.82
2023-01-19T18:43:16.400Z,99.96
2023-01-19T18:45:46.980Z,99.83
2023-01-19T18:48:13.890Z,99.79
2023-01-19T18:50:40.564Z,99.57
2023-01-19T18:53:07.366Z,99.53
2023-01-19T18:55:36.291Z,99.41
2023-01-19T18:58:05.074Z,99.35
2023-01-19T19:00:32.003Z,99.26
2023-01-19T19:02:58.649Z,99.27
2023-01-19T19:05:25.619Z,99.04
2023-01-19T19:07:52.487Z,98.97
2023-01-19T19:10:19.309Z,98.84
2023-01-19T19:12:45.917Z,98.64
2023-01-19T19:15:13.916Z,98.76
2023-01-19T19:17:40.536Z,98.59
2023-01-19T19:20:07.389Z,98.39
2023-01-19T19:22:34.173Z,98.10
2023-01-19T19:25:01.031Z,98.01
2023-01-19T19:27:27.973Z,97.78
2023-01-19T19:29:54.421Z,97.53
2023-01-19T19:32:21.545Z,97.45
2023-01-19T19:34:56.559Z,97.22
2023-01-19T19:37:23.852Z,97.06
2023-01-19T19:39:50.904Z,96.87
2023-01-19T19:42:18.009Z,96.69
2023-01-19T19:44:44.998Z,96.59
2023-01-19T19:47:11.979Z,96.31
2023-01-19T19:49:39.293Z,96.39
2023-01-19T19:52:06.319Z,96.16
2023-01-19T19:54:33.285Z,96.36
2023-01-19T19:57:00.615Z,96.17
2023-01-19T19:59:27.612Z,96.26
2023-01-19T20:01:54.680Z,96.22
2023-01-19T20:04:22.816Z,96.25
2023-01-19T20:06:49.917Z,96.44
2023-01-19T20:09:17.197Z,96.32
2023-01-19T20:11:46.709Z,96.39
2023-01-19T20:14:14.615Z,96.45
2023-01-19T20:16:41.552Z,96.33
2023-01-19T20:19:08.414Z,96.45
2023-01-19T20:21:37.734Z,96.54
2023-01-19T20:24:08.110Z,96.60
2023-01-19T20:26:39.752Z,96.63
2023-01-19T20:29:07.002Z,96.60
2023-01-19T20:31:38.143Z,96.86
2023-01-19T20:34:07.310Z,96.81
2023-01-19T20:36:34.967Z,96.43
2023-01-19T20:39:08.359Z,96.27
2023-01-19T20:41:38.847Z,96.52
2023-01-19T20:44:05.890Z,96.38
2023-01-19T20:46:32.577Z,96.24
2023-01-19T20:48:59.478Z,95.80
2023-01-19T20:51:27.025Z,95.91
2023-01-19T20:53:53.943Z,95.87
2023-01-19T20:56:21.085Z,95.96
2023-01-19T20:58:47.880Z,95.96
2023-01-19T21:01:18.759Z,95.89
2023-01-19T21:03:45.761Z,95.79
2023-01-19T21:06:13.717Z,95.94
2023-01-19T21:08:41.151Z,95.82
2023-01-19T21:11:09.319Z,95.99
2023-01-19T21:13:37.069Z,96.08
2023-01-19T21:16:04.749Z,96.00
2023-01-19T21:18:31.666Z,95.97
2023-01-19T21:20:58.797Z,96.28
2023-01-19T21:23:26.795Z,96.24
2023-01-19T21:25:57.740Z,96.22
2023-01-19T21:28:25.709Z,96.14
2023-01-19T21:30:53.726Z,95.83
2023-01-19T21:33:21.308Z,95.71
2023-01-19T21:35:56.146Z,95.55
2023-01-19T21:38:24.347Z,95.49
2023-01-19T21:40:51.589Z,95.69
2023-01-19T21:43:20.095Z,96.01
2023-01-19T21:45:48.394Z,96.01
2023-01-19T21:48:16.158Z,96.14
2023-01-19T21:50:43.831Z,96.02
2023-01-19T21:53:11.485Z,96.07
2023-01-19T21:55:42.789Z,95.87
2023-01-19T21:58:09.501Z,95.79
2023-01-19T22:00:36.353Z,95.97
2023-01-19T22:03:04.659Z,95.93
2023-01-19T22:05:36.723Z,95.92
2023-01-19T22:08:05.089Z,95.92
2023-01-19T22:10:32.357Z,96.18
2023-01-19T22:12:59.329Z,96.25
2023-01-19T22:15:26.570Z,96.41
2023-01-19T22:17:53.479Z,96.26
2023-01-19T22:20:20.140Z,95.98
2023-01-19T22:22:46.606Z,95.83
2023-01-19T22:25:15.303Z,95.94
2023-01-19T22:27:42.119Z,95.89
2023-01-19T22:30:09.457Z,95.96
2023-01-19T22:32:36.775Z,96.20
2023-01-19T22:35:03.937Z,96.29
2023-01-19T22:37:36.287Z,96.26
2023-01-19T22:40:04.665Z,96.58
2023-01-19T22:42:31.601Z,96.74
2023-01-19T22:44:58.427Z,96.96
2023-01-19T22:47:27.953Z,96.91
2023-01-19T22:49:57.512Z,96.73
2023-01-19T22:52:27.336Z,96.73
2023-01-19T22:54:57.553Z,96.62
2023-01-19T22:57:33.571Z,96.53
2023-01-19T23:00:07.144Z,96.28
2023-01-19T23:02:34.140Z,96.05
2023-01-19T23:05:01.042Z,95.92
2023-01-19T23:07:28.115Z,95.80
2023-01-19T23:09:54.692Z,95.70
2023-01-19T23:12:21.655Z,95.90
2023-01-19T23:14:48.538Z,95.90
2023-01-19T23:17:15.204Z,96.17
2023-01-19T23:19:42.426Z,96.43
2023-01-19T23:22:09.271Z,96.42
2023-01-19T23:24:36.140Z,96.30
2023-01-19T23:27:02.948Z,96.72
2023-01-19T23:29:30.003Z,96.54
2023-01-19T23:31:56.942Z,96.68
2023-01-19T23:34:23.932Z,96.61
2023-01-19T23:36:51.132Z,96.74
2023-01-19T23:39:21.898Z,96.60
2023-01-19T23:41:49.448Z,96.57
2023-01-19T23:44:17.159Z,96.60
2023-01-19T23:46:44.456Z,96.44
2023-01-19T23:49:12.105Z,96.43
2023-01-19T23:51:39.410Z,96.58
2023-01-19T23:54:06.301Z,96.69
2023-01-19T23:56:36.063Z,96.68
2023-01-19T23:59:08.668Z,96.76
